Time;durP1;ratioP1;P1;durP2;ratioP2;P2;SDS_P1;SDS_P2;PMS_P1;PMS_P2;Temp;Humidity;BMP_temperature;BMP_pressure;BME280_temperature;BME280_humidity;BME280_pressure;Samples;Min_cycle;Max_cycle;Signal;HPM_P1;HPM_P2
2021/10/05 00:01:05;;;;;;;10.15;4.20;;;;;;;9.62;82.42;101116.97;5008759;28;20029;-75
2021/10/05 00:03:31;;;;;;;7.97;3.75;;;;;;;9.61;82.62;101114.53;5014006;28;20040;-75
2021/10/05 00:05:56;;;;;;;11.13;5.43;;;;;;;9.64;82.46;101114.22;5032699;28;20033;-75
2021/10/05 00:08:22;;;;;;;10.13;5.43;;;;;;;9.58;82.80;101100.09;5016028;28;20026;-74
2021/10/05 00:10:47;;;;;;;8.15;5.22;;;;;;;9.51;82.82;101102.44;5014418;28;20069;-75
2021/10/05 00:13:13;;;;;;;12.13;6.43;;;;;;;9.49;82.85;101100.94;5015548;28;20537;-75
2021/10/05 00:15:39;;;;;;;8.73;5.40;;;;;;;9.47;83.69;101095.06;5019002;28;20180;-75
2021/10/05 00:18:04;;;;;;;6.32;4.18;;;;;;;9.59;82.78;101093.97;5011061;28;20033;-75
2021/10/05 00:20:30;;;;;;;5.18;3.35;;;;;;;9.54;83.21;101094.38;5017738;28;20060;-75
2021/10/05 00:22:57;;;;;;;8.93;3.05;;;;;;;9.52;83.12;101088.53;5017775;28;20030;-72
2021/10/05 00:25:23;;;;;;;6.13;3.38;;;;;;;9.43;83.31;101081.59;5019418;28;20041;-75
2021/10/05 00:27:49;;;;;;;9.15;3.35;;;;;;;9.40;83.44;101081.91;4998670;28;20048;-74
2021/10/05 00:30:14;;;;;;;7.75;3.83;;;;;;;9.39;83.87;101079.44;5012107;28;20041;-75
2021/10/05 00:32:39;;;;;;;10.05;4.25;;;;;;;9.48;83.55;101076.00;5020197;28;20026;-75
2021/10/05 00:35:05;;;;;;;7.97;4.53;;;;;;;9.49;83.37;101068.13;5011622;28;20041;-75
2021/10/05 00:37:31;;;;;;;14.02;5.55;;;;;;;9.44;83.34;101067.72;5018912;28;20114;-73
2021/10/05 00:39:57;;;;;;;10.38;7.18;;;;;;;9.34;84.09;101064.31;5020551;28;20026;-74
2021/10/05 00:42:22;;;;;;;9.35;7.20;;;;;;;9.31;83.74;101062.03;5016390;28;20057;-73
2021/10/05 00:44:50;;;;;;;8.63;6.55;;;;;;;9.41;84.16;101059.41;5009055;28;20475;-72
2021/10/05 00:47:17;;;;;;;10.85;7.90;;;;;;;9.43;83.71;101053.13;5007271;28;20034;-74
2021/10/05 00:49:46;;;;;;;10.27;7.22;;;;;;;9.35;83.85;101047.84;5018934;28;20028;-75
2021/10/05 00:52:14;;;;;;;10.52;7.35;;;;;;;9.31;84.16;101044.72;5013004;28;20414;-75
2021/10/05 00:54:41;;;;;;;11.50;7.05;;;;;;;9.35;83.75;101040.09;5010374;28;20034;-74
2021/10/05 00:57:08;;;;;;;8.77;5.55;;;;;;;9.38;83.79;101033.81;5030080;28;20091;-74
2021/10/05 00:59:35;;;;;;;11.60;5.00;;;;;;;9.45;83.76;101034.88;5000131;28;20036;-75
2021/10/05 01:02:05;;;;;;;10.02;4.50;;;;;;;9.31;84.39;101036.16;5018183;28;20401;-75
2021/10/05 01:04:31;;;;;;;10.15;5.22;;;;;;;9.31;84.34;101034.38;4995678;28;20018;-75
2021/10/05 01:07:02;;;;;;;13.30;5.38;;;;;;;9.40;84.10;101030.13;5012766;28;20498;-74
2021/10/05 01:09:29;;;;;;;9.50;5.20;;;;;;;9.31;84.53;101016.25;5010863;28;20030;-75
2021/10/05 01:11:55;;;;;;;8.90;5.35;;;;;;;9.38;84.18;101023.44;5017953;28;20379;-75
2021/10/05 01:14:21;;;;;;;11.32;4.78;;;;;;;9.39;84.13;101020.72;5011699;28;20036;-74
2021/10/05 01:16:49;;;;;;;10.55;4.88;;;;;;;9.41;84.17;101016.22;4998433;28;20579;-74
2021/10/05 01:19:14;;;;;;;10.75;4.57;;;;;;;9.37;84.35;101009.72;5015879;28;20038;-73
2021/10/05 01:21:40;;;;;;;6.50;4.32;;;;;;;9.36;84.44;101002.88;5009921;28;20037;-74
2021/10/05 01:24:09;;;;;;;10.02;5.15;;;;;;;9.37;84.28;101001.13;5017105;28;20038;-75
2021/10/05 01:26:34;;;;;;;8.93;5.15;;;;;;;9.40;84.66;101006.00;5010984;28;20389;-75
2021/10/05 01:29:02;;;;;;;11.10;5.63;;;;;;;9.27;85.00;101002.00;5009230;28;20035;-75
2021/10/05 01:31:43;;;;;;;12.32;6.38;;;;;;;9.31;84.65;100997.34;5010131;28;20632;-74
2021/10/05 01:34:09;;;;;;;9.65;5.45;;;;;;;9.24;84.89;100993.69;5011685;28;20041;-75
2021/10/05 01:36:34;;;;;;;13.13;5.03;;;;;;;9.21;85.14;100987.03;5025858;28;20247;-75
2021/10/05 01:39:02;;;;;;;10.35;6.05;;;;;;;9.32;84.92;100986.03;5018808;28;20040;-74
2021/10/05 01:41:28;;;;;;;9.98;6.05;;;;;;;9.32;84.72;100986.03;5009699;28;20034;-74
2021/10/05 01:43:53;;;;;;;8.40;6.05;;;;;;;9.40;84.45;100975.78;5019759;28;20033;-75
2021/10/05 01:46:19;;;;;;;11.23;5.65;;;;;;;9.36;84.57;100974.41;5002679;28;20034;-76
2021/10/05 01:48:44;;;;;;;10.18;5.55;;;;;;;9.31;84.84;100964.50;5008377;28;20358;-76
2021/10/05 01:51:11;;;;;;;12.68;6.00;;;;;;;9.26;85.01;100963.31;5015662;28;20038;-75
2021/10/05 01:53:37;;;;;;;12.25;5.47;;;;;;;9.35;84.78;100957.28;5012854;28;20026;-76
2021/10/05 01:56:05;;;;;;;11.27;6.35;;;;;;;9.33;84.79;100949.66;5014605;28;20060;-75
2021/10/05 01:58:30;;;;;;;13.68;6.57;;;;;;;9.33;84.77;100941.88;5010036;28;20099;-75
2021/10/05 02:00:56;;;;;;;15.75;6.55;;;;;;;9.32;85.13;100935.09;5011048;28;20033;-75
2021/10/05 02:03:21;;;;;;;9.65;6.30;;;;;;;9.35;84.61;100944.34;5009306;28;20030;-75
2021/10/05 02:05:47;;;;;;;10.63;7.97;;;;;;;9.33;85.16;100941.09;5010770;28;20030;-75
2021/10/05 02:08:14;;;;;;;14.07;7.95;;;;;;;9.23;85.32;100935.13;5003198;28;20105;-75
2021/10/05 02:10:40;;;;;;;14.18;9.90;;;;;;;9.20;85.69;100927.66;5016654;28;20037;-74
2021/10/05 02:13:06;;;;;;;17.52;11.32;;;;;;;9.24;85.14;100916.06;5012760;28;20051;-75
2021/10/05 02:15:33;;;;;;;22.92;11.93;;;;;;;9.20;85.47;100914.72;5009734;28;20038;-75
2021/10/05 02:17:58;;;;;;;24.63;14.13;;;;;;;9.21;85.25;100906.81;5018890;28;20057;-74
2021/10/05 02:20:24;;;;;;;18.38;13.77;;;;;;;9.25;85.63;100907.31;5014356;28;20353;-75
2021/10/05 02:22:53;;;;;;;22.25;14.43;;;;;;;9.19;85.87;100898.38;5013821;28;20029;-73
2021/10/05 02:25:19;;;;;;;21.95;13.63;;;;;;;9.17;85.94;100902.88;5024176;28;20033;-75
2021/10/05 02:27:44;;;;;;;23.33;15.43;;;;;;;9.17;85.87;100897.69;5019132;28;20096;-75
2021/10/05 02:30:10;;;;;;;17.25;12.68;;;;;;;9.20;85.87;100886.28;5013842;28;20088;-75
2021/10/05 02:32:36;;;;;;;23.23;14.02;;;;;;;9.18;85.97;100885.59;5015469;28;20509;-75
2021/10/05 02:35:02;;;;;;;18.90;12.68;;;;;;;9.15;86.04;100882.34;5017387;28;20084;-74
2021/10/05 02:37:30;;;;;;;21.00;12.02;;;;;;;9.19;86.32;100882.84;5016312;28;20529;-74
2021/10/05 02:40:01;;;;;;;19.67;10.90;;;;;;;9.17;85.98;100884.78;5022677;28;20095;-76
2021/10/05 02:42:26;;;;;;;16.50;10.27;;;;;;;9.22;85.97;100874.81;5017530;28;20422;-76
2021/10/05 02:44:55;;;;;;;16.35;9.20;;;;;;;9.34;85.28;100873.66;5019696;28;20034;-73
2021/10/05 02:47:22;;;;;;;12.45;8.32;;;;;;;9.27;85.62;100867.44;5018166;28;20037;-73
2021/10/05 02:49:47;;;;;;;13.23;7.85;;;;;;;9.21;86.17;100877.53;5012617;28;20065;-73
2021/10/05 02:52:16;;;;;;;12.60;6.85;;;;;;;9.22;85.87;100872.22;5021380;28;20069;-73
2021/10/05 02:54:43;;;;;;;13.45;7.80;;;;;;;9.22;86.00;100864.47;5020366;28;20038;-76
2021/10/05 02:57:09;;;;;;;13.50;9.73;;;;;;;9.28;85.97;100861.28;5033536;28;20041;-75
2021/10/05 02:59:34;;;;;;;12.02;7.68;;;;;;;9.19;85.98;100861.34;5017591;28;20388;-74
2021/10/05 03:02:00;;;;;;;13.15;8.95;;;;;;;9.20;86.34;100855.22;5025145;28;20037;-75
2021/10/05 03:04:26;;;;;;;23.05;9.93;;;;;;;9.26;86.08;100864.97;5012708;28;20487;-74
2021/10/05 03:06:52;;;;;;;12.52;8.23;;;;;;;9.18;85.95;100857.94;5017316;28;20033;-75
2021/10/05 03:09:18;;;;;;;12.48;8.63;;;;;;;9.12;86.68;100855.94;5002685;28;20019;-75
2021/10/05 03:11:43;;;;;;;20.17;8.27;;;;;;;9.18;86.44;100854.56;5010994;28;20502;-76
2021/10/05 03:14:09;;;;;;;11.15;6.88;;;;;;;9.11;86.89;100860.28;5026123;28;20180;-75
2021/10/05 03:16:35;;;;;;;9.82;6.32;;;;;;;9.08;86.99;100852.84;5020026;28;20032;-76
2021/10/05 03:19:00;;;;;;;12.48;5.75;;;;;;;9.26;86.26;100844.28;5014437;28;20414;-73
2021/10/05 03:21:26;;;;;;;13.90;6.15;;;;;;;9.25;86.25;100840.06;5015583;28;20033;-75
2021/10/05 03:23:52;;;;;;;9.98;5.40;;;;;;;9.33;86.15;100845.34;5005620;28;20064;-74
2021/10/05 03:26:17;;;;;;;10.18;5.85;;;;;;;9.26;86.50;100842.50;5013781;28;20034;-75
2021/10/05 03:28:43;;;;;;;12.25;6.25;;;;;;;9.24;86.50;100838.44;5006757;28;20125;-74
2021/10/05 03:31:11;;;;;;;13.35;6.50;;;;;;;9.30;86.38;100841.25;5023426;28;20040;-74
2021/10/05 03:33:38;;;;;;;9.48;5.60;;;;;;;9.34;86.43;100840.00;5015227;28;20475;-76
2021/10/05 03:36:04;;;;;;;13.23;5.53;;;;;;;9.43;86.06;100829.72;5008898;28;20066;-74
2021/10/05 03:38:30;;;;;;;9.27;6.13;;;;;;;9.35;86.16;100833.88;5019932;28;20571;-74
2021/10/05 03:40:56;;;;;;;8.18;4.75;;;;;;;9.42;85.95;100813.41;5017104;28;20305;-75
2021/10/05 03:43:23;;;;;;;11.88;5.50;;;;;;;9.25;86.44;100811.59;5025860;28;20072;-75
2021/10/05 03:45:50;;;;;;;12.45;6.30;;;;;;;9.32;86.17;100810.03;5014817;28;20042;-75
2021/10/05 03:48:17;;;;;;;9.18;5.47;;;;;;;9.28;86.71;100806.94;5016297;28;20049;-74
2021/10/05 03:50:43;;;;;;;9.48;5.45;;;;;;;9.27;86.55;100801.94;5027235;28;20037;-75
2021/10/05 03:53:09;;;;;;;11.52;5.63;;;;;;;9.26;86.61;100800.28;5018954;28;20033;-75
2021/10/05 03:55:34;;;;;;;8.25;4.70;;;;;;;9.32;86.34;100797.13;5017328;28;20120;-74
2021/10/05 03:58:00;;;;;;;8.63;4.65;;;;;;;9.46;85.74;100793.22;5010186;28;20041;-74
2021/10/05 04:00:25;;;;;;;12.27;5.40;;;;;;;9.43;85.85;100791.72;5000600;28;20030;-75
2021/10/05 04:02:51;;;;;;;8.68;5.07;;;;;;;9.41;86.14;100790.25;5019739;28;20102;-75
2021/10/05 04:05:16;;;;;;;7.78;5.53;;;;;;;9.31;86.27;100795.50;5017127;28;20041;-75
2021/10/05 04:07:42;;;;;;;9.02;5.20;;;;;;;9.27;86.36;100787.22;5010130;28;20061;-75
2021/10/05 04:10:07;;;;;;;8.07;4.35;;;;;;;9.23;86.71;100782.47;5012001;28;20030;-74
2021/10/05 04:12:34;;;;;;;9.13;6.18;;;;;;;9.27;86.56;100774.28;5013792;28;20407;-74
2021/10/05 04:15:00;;;;;;;9.25;4.65;;;;;;;9.33;86.53;100772.88;5019978;28;20025;-74
2021/10/05 04:17:25;;;;;;;10.38;5.15;;;;;;;9.26;86.86;100769.25;5012215;28;20479;-78
2021/10/05 04:19:51;;;;;;;6.93;4.78;;;;;;;9.28;86.85;100769.91;5014348;28;20034;-74
2021/10/05 04:22:16;;;;;;;8.50;4.32;;;;;;;9.26;86.61;100771.84;5012157;28;20037;-77
2021/10/05 04:24:42;;;;;;;8.05;5.78;;;;;;;9.26;86.97;100767.47;5015454;28;20407;-75
2021/10/05 04:27:10;;;;;;;12.88;6.32;;;;;;;9.29;86.72;100763.78;5012039;28;20042;-75
2021/10/05 04:29:40;;;;;;;7.13;5.40;;;;;;;9.34;86.59;100761.53;5014034;28;20055;-72
2021/10/05 04:32:07;;;;;;;10.63;5.30;;;;;;;9.22;86.66;100765.34;5015880;28;20034;-75
2021/10/05 04:34:32;;;;;;;11.43;5.53;;;;;;;9.24;87.19;100761.63;5014635;28;20152;-74
2021/10/05 04:36:58;;;;;;;13.20;5.60;;;;;;;9.21;87.12;100761.09;5013381;28;20386;-75
2021/10/05 04:39:24;;;;;;;11.15;5.05;;;;;;;9.16;87.46;100754.59;5013841;28;20545;-78
2021/10/05 04:41:49;;;;;;;7.22;5.28;;;;;;;9.29;86.90;100751.66;4993657;28;20032;-75
2021/10/05 04:44:15;;;;;;;9.23;5.43;;;;;;;9.20;87.21;100743.97;5011545;28;20038;-75
2021/10/05 04:46:40;;;;;;;8.13;5.78;;;;;;;9.26;87.20;100738.19;5007235;28;20034;-76
2021/10/05 04:49:06;;;;;;;11.70;6.55;;;;;;;9.35;86.62;100737.31;5013285;28;20394;-74
2021/10/05 04:51:33;;;;;;;8.13;6.30;;;;;;;9.23;87.46;100735.91;5010346;28;20045;-75
2021/10/05 04:53:59;;;;;;;10.13;7.03;;;;;;;9.13;87.58;100735.97;5008865;28;20379;-74
2021/10/05 04:56:24;;;;;;;8.40;5.60;;;;;;;9.25;87.57;100728.78;5011331;28;20079;-75
2021/10/05 04:58:50;;;;;;;15.27;6.03;;;;;;;9.31;87.50;100725.63;5023032;28;20120;-76
2021/10/05 05:01:15;;;;;;;8.13;5.40;;;;;;;9.24;87.40;100714.25;5008168;28;20034;-74
2021/10/05 05:03:41;;;;;;;10.18;6.20;;;;;;;9.17;87.84;100716.59;5009329;28;20034;-75
2021/10/05 05:06:06;;;;;;;10.27;5.72;;;;;;;9.15;87.79;100708.19;5008297;28;20510;-75
2021/10/05 05:08:32;;;;;;;11.60;6.72;;;;;;;9.19;87.78;100712.09;5007347;28;20034;-76
2021/10/05 05:10:57;;;;;;;8.43;5.55;;;;;;;9.30;88.04;100704.09;5014300;28;20537;-75
2021/10/05 05:13:23;;;;;;;7.40;5.80;;;;;;;9.24;87.60;100696.13;5011198;28;20430;-73
2021/10/05 05:15:48;;;;;;;9.38;6.53;;;;;;;9.30;87.91;100685.97;5009414;28;20034;-75
2021/10/05 05:18:13;;;;;;;7.85;6.10;;;;;;;9.33;87.23;100695.25;5013997;28;20038;-76
2021/10/05 05:20:39;;;;;;;10.57;6.40;;;;;;;9.27;87.75;100688.09;5015583;28;20038;-74
2021/10/05 05:23:04;;;;;;;10.93;6.90;;;;;;;9.33;87.43;100682.31;5008669;28;20025;-76
2021/10/05 05:25:31;;;;;;;10.80;6.38;;;;;;;9.30;87.47;100692.94;5008284;28;20046;-75
2021/10/05 05:27:57;;;;;;;14.57;8.00;;;;;;;9.28;87.74;100682.75;5008129;28;20513;-76
2021/10/05 05:30:22;;;;;;;12.68;7.60;;;;;;;9.26;87.49;100676.09;4994537;28;20033;-75
2021/10/05 05:32:48;;;;;;;16.23;9.07;;;;;;;9.22;87.68;100677.38;5007569;28;20154;-75
2021/10/05 05:35:13;;;;;;;15.45;9.43;;;;;;;9.31;87.28;100682.44;5012596;28;20033;-75
2021/10/05 05:37:39;;;;;;;10.75;8.65;;;;;;;9.33;87.40;100677.94;5012511;28;20537;-75
2021/10/05 05:40:05;;;;;;;17.23;10.10;;;;;;;9.26;87.48;100678.69;5014643;28;20042;-74
2021/10/05 05:42:30;;;;;;;16.83;10.32;;;;;;;9.22;87.78;100675.59;5012402;28;20029;-74
2021/10/05 05:44:56;;;;;;;17.50;9.88;;;;;;;9.26;87.60;100668.34;5011330;28;20037;-75
2021/10/05 05:47:21;;;;;;;17.77;11.38;;;;;;;9.29;87.67;100658.50;4997006;28;20040;-74
2021/10/05 05:49:47;;;;;;;15.70;10.93;;;;;;;9.22;87.70;100656.66;5024411;28;20029;-75
2021/10/05 05:52:13;;;;;;;18.70;9.35;;;;;;;9.22;87.39;100657.47;5028052;28;20041;-75
2021/10/05 05:54:38;;;;;;;13.20;9.25;;;;;;;9.29;87.77;100649.94;5011979;28;20042;-74
2021/10/05 05:57:04;;;;;;;15.45;9.25;;;;;;;9.29;87.55;100640.38;5005626;28;20203;-75
2021/10/05 05:59:29;;;;;;;16.70;9.95;;;;;;;9.22;87.57;100647.13;5008660;28;20042;-75
2021/10/05 06:01:55;;;;;;;15.80;9.48;;;;;;;9.17;87.89;100646.75;5008131;28;20030;-75
2021/10/05 06:04:22;;;;;;;17.48;10.70;;;;;;;9.21;87.89;100642.09;5007943;28;20434;-74
2021/10/05 06:06:47;;;;;;;21.25;11.40;;;;;;;9.42;87.59;100641.75;5009016;28;20044;-75
2021/10/05 06:09:13;;;;;;;14.13;10.13;;;;;;;9.33;87.27;100640.91;5008404;28;20539;-76
2021/10/05 06:11:40;;;;;;;16.83;10.82;;;;;;;9.36;87.35;100645.75;5010877;28;20045;-74
2021/10/05 06:14:06;;;;;;;17.50;11.40;;;;;;;9.34;87.52;100642.50;5009376;28;20064;-74
2021/10/05 06:16:31;;;;;;;20.40;10.68;;;;;;;9.40;87.41;100643.69;5007759;28;20038;-75
2021/10/05 06:18:57;;;;;;;19.25;12.32;;;;;;;9.34;87.54;100640.75;5008967;28;20038;-75
2021/10/05 06:21:22;;;;;;;27.67;12.82;;;;;;;9.40;87.53;100636.75;5022181;28;20447;-73
2021/10/05 06:23:48;;;;;;;18.88;12.43;;;;;;;9.40;87.62;100636.75;5015838;28;20474;-74
2021/10/05 06:26:14;;;;;;;17.05;11.27;;;;;;;9.49;87.56;100635.84;5009773;28;20076;-73
2021/10/05 06:28:42;;;;;;;16.48;10.88;;;;;;;9.48;87.66;100633.41;5017071;28;20037;-76
2021/10/05 06:31:08;;;;;;;18.05;11.50;;;;;;;9.45;87.40;100638.88;5012950;28;20068;-74
2021/10/05 06:33:34;;;;;;;21.98;11.05;;;;;;;9.45;87.56;100626.72;5012476;28;20497;-74
2021/10/05 06:35:59;;;;;;;20.77;11.80;;;;;;;9.57;87.77;100626.47;5010365;28;20022;-76
2021/10/05 06:38:25;;;;;;;18.70;11.60;;;;;;;9.51;87.69;100638.25;5009227;28;20030;-74
2021/10/05 06:40:52;;;;;;;18.95;12.27;;;;;;;9.50;87.78;100634.84;5011838;28;20100;-75
2021/10/05 06:43:19;;;;;;;14.90;11.00;;;;;;;9.52;87.94;100625.16;5023363;28;20141;-73
2021/10/05 06:45:44;;;;;;;15.00;10.95;;;;;;;9.61;87.45;100628.63;5008234;28;20523;-74
2021/10/05 06:48:10;;;;;;;13.75;9.80;;;;;;;9.67;87.14;100630.59;5012062;28;20037;-73
2021/10/05 06:50:36;;;;;;;18.38;9.43;;;;;;;9.78;87.10;100615.75;5011346;28;20912;-73
2021/10/05 06:53:03;;;;;;;16.02;9.25;;;;;;;9.67;87.34;100615.03;5013861;28;20041;-74
2021/10/05 06:55:29;;;;;;;14.55;10.43;;;;;;;9.68;87.55;100616.69;5026802;28;20037;-73
2021/10/05 06:57:55;;;;;;;14.40;9.30;;;;;;;9.72;87.54;100605.03;5010505;28;20038;-75
2021/10/05 07:00:21;;;;;;;11.77;8.80;;;;;;;9.73;87.33;100605.84;5003877;28;20033;-74
2021/10/05 07:02:47;;;;;;;14.02;8.95;;;;;;;9.72;87.36;100609.41;5002650;28;20405;-74
2021/10/05 07:05:15;;;;;;;9.65;6.10;;;;;;;9.86;87.09;100602.84;5007884;28;20454;-75
2021/10/05 07:07:42;;;;;;;9.23;6.45;;;;;;;10.28;85.69;100596.81;5016796;28;20053;-75
2021/10/05 07:10:09;;;;;;;7.05;5.45;;;;;;;10.72;83.94;100599.19;5011765;28;20030;-75
2021/10/05 07:12:34;;;;;;;8.32;5.72;;;;;;;10.50;83.90;100585.84;5009795;28;20123;-73
2021/10/05 07:15:01;;;;;;;7.70;5.72;;;;;;;10.57;84.06;100591.22;5009733;28;20523;-77
2021/10/05 07:17:27;;;;;;;7.88;5.40;;;;;;;10.77;83.49;100594.28;5011189;28;20030;-74
2021/10/05 07:19:52;;;;;;;12.88;6.35;;;;;;;10.85;83.02;100588.28;5012760;28;20037;-74
2021/10/05 07:22:18;;;;;;;7.53;5.47;;;;;;;10.86;83.14;100585.53;5009609;28;20038;-73
2021/10/05 07:24:44;;;;;;;9.02;6.00;;;;;;;10.88;82.75;100587.97;5017260;28;20045;-74
2021/10/05 07:27:09;;;;;;;9.48;6.82;;;;;;;10.69;83.45;100584.72;5009312;28;20030;-74
2021/10/05 07:29:34;;;;;;;11.60;7.53;;;;;;;10.63;83.74;100585.38;5018900;28;20540;-73
2021/10/05 07:32:00;;;;;;;11.00;8.02;;;;;;;10.64;84.15;100584.44;5018846;28;20030;-74
2021/10/05 07:34:26;;;;;;;7.63;5.88;;;;;;;11.47;80.95;100593.72;5018107;28;20459;-74
2021/10/05 07:36:51;;;;;;;10.82;5.50;;;;;;;11.31;81.19;100591.16;5012637;28;20376;-76
2021/10/05 07:39:17;;;;;;;9.27;6.60;;;;;;;11.22;82.22;100571.41;5014302;28;20092;-75
2021/10/05 07:41:43;;;;;;;9.00;5.22;;;;;;;11.51;80.76;100576.03;5018935;28;20030;-75
2021/10/05 07:44:13;;;;;;;9.15;5.10;;;;;;;11.87;79.52;100565.97;5009468;28;20037;-75
2021/10/05 07:46:39;;;;;;;12.60;6.75;;;;;;;11.93;78.82;100561.13;5014439;28;20034;-75
2021/10/05 07:49:06;;;;;;;7.50;5.88;;;;;;;11.82;79.49;100552.69;5007828;28;20253;-73
2021/10/05 07:51:32;;;;;;;11.85;5.72;;;;;;;12.53;77.11;100552.59;5015809;28;20037;-73
2021/10/05 07:53:58;;;;;;;11.60;6.53;;;;;;;12.96;75.45;100545.06;5018847;28;20025;-73
2021/10/05 07:56:23;;;;;;;10.18;5.68;;;;;;;12.60;75.98;100540.53;5007135;28;20038;-74
2021/10/05 07:58:49;;;;;;;10.30;6.68;;;;;;;12.75;76.13;100537.13;5017691;28;20581;-73
2021/10/05 08:01:15;;;;;;;8.68;5.68;;;;;;;13.35;73.75;100541.41;5017922;28;20037;-73
2021/10/05 08:03:40;;;;;;;9.90;5.82;;;;;;;13.61;73.09;100542.75;5012666;28;20203;-74
2021/10/05 08:06:07;;;;;;;9.25;5.13;;;;;;;13.96;70.57;100535.16;5020625;28;20536;-77
2021/10/05 08:08:32;;;;;;;11.20;4.53;;;;;;;13.59;71.67;100531.72;5011689;28;20028;-74
2021/10/05 08:10:58;;;;;;;8.80;5.05;;;;;;;13.37;72.90;100530.81;5009658;28;20034;-76
2021/10/05 08:13:23;;;;;;;8.35;5.05;;;;;;;13.37;73.25;100520.41;5022474;28;20041;-73
2021/10/05 08:15:49;;;;;;;9.07;4.72;;;;;;;13.96;71.58;100519.50;5015509;28;20502;-74
2021/10/05 08:18:14;;;;;;;8.70;4.78;;;;;;;14.53;69.97;100521.22;5018468;28;20033;-74
2021/10/05 08:20:41;;;;;;;11.18;4.68;;;;;;;13.81;71.59;100522.97;5029398;28;20033;-76
2021/10/05 08:23:07;;;;;;;8.25;5.18;;;;;;;13.76;71.69;100520.09;5011351;28;20034;-74
2021/10/05 08:25:33;;;;;;;7.03;3.75;;;;;;;13.30;73.32;100525.56;5029785;28;20490;-75
2021/10/05 08:27:59;;;;;;;8.60;5.70;;;;;;;13.00;74.30;100530.72;5013670;28;20030;-75
2021/10/05 08:30:24;;;;;;;8.02;4.80;;;;;;;13.22;74.17;100521.22;5010046;28;20034;-74
2021/10/05 08:32:50;;;;;;;10.15;4.82;;;;;;;13.43;73.69;100511.91;5005151;28;20300;-74
2021/10/05 08:35:17;;;;;;;8.05;4.72;;;;;;;13.38;73.53;100515.03;5014396;28;20033;-74
2021/10/05 08:37:43;;;;;;;8.25;5.68;;;;;;;13.54;73.18;100513.22;5015749;28;20037;-73
2021/10/05 08:40:11;;;;;;;8.63;5.40;;;;;;;13.96;71.64;100501.25;5015425;28;20037;-74
2021/10/05 08:42:37;;;;;;;17.95;5.90;;;;;;;14.55;70.18;100487.91;5015524;28;20113;-74
2021/10/05 08:45:04;;;;;;;10.10;5.63;;;;;;;15.03;68.07;100486.44;5015777;28;20549;-74
2021/10/05 08:47:30;;;;;;;8.38;6.20;;;;;;;15.57;66.82;100483.06;5016660;28;20034;-75
2021/10/05 08:49:55;;;;;;;9.25;6.43;;;;;;;15.35;66.64;100491.03;5017284;28;20345;-74
2021/10/05 08:52:21;;;;;;;9.57;4.63;;;;;;;15.41;66.07;100488.63;5016011;28;20501;-78
2021/10/05 08:54:47;;;;;;;10.55;4.35;;;;;;;15.71;65.87;100481.31;5006084;28;20042;-75
2021/10/05 08:57:13;;;;;;;8.50;4.22;;;;;;;15.31;66.34;100483.78;5011579;28;20430;-74
2021/10/05 08:59:39;;;;;;;8.93;4.70;;;;;;;15.64;66.30;100483.91;5012550;28;20184;-75
2021/10/05 09:02:16;;;;;;;8.48;4.07;;;;;;;15.62;67.16;100466.81;5011647;28;20470;-74
2021/10/05 09:04:43;;;;;;;6.65;3.72;;;;;;;16.04;65.34;100464.91;5021141;28;20029;-75
2021/10/05 09:07:19;;;;;;;8.50;3.65;;;;;;;15.68;64.06;100468.63;5019920;28;20055;-75
2021/10/05 09:09:54;;;;;;;5.82;3.08;;;;;;;15.66;64.04;100454.97;5009023;28;20048;-76
2021/10/05 09:12:25;;;;;;;7.03;2.63;;;;;;;15.77;64.04;100455.22;5016490;28;20030;-74
2021/10/05 09:14:51;;;;;;;9.00;3.63;;;;;;;15.94;64.25;100455.63;5012794;28;20092;-73
2021/10/05 09:17:24;;;;;;;5.57;2.75;;;;;;;15.86;62.60;100447.16;5012688;28;20034;-73
2021/10/05 09:19:51;;;;;;;4.78;2.30;;;;;;;15.87;63.27;100443.56;5012685;28;20038;-76
2021/10/05 09:22:19;;;;;;;6.50;2.75;;;;;;;15.44;63.30;100462.13;5016462;28;20033;-75
2021/10/05 09:24:47;;;;;;;5.10;2.53;;;;;;;15.37;63.84;100451.66;5014202;28;20056;-76
2021/10/05 09:27:13;;;;;;;7.20;2.50;;;;;;;15.58;64.00;100437.66;5016282;28;20037;-76
2021/10/05 09:29:39;;;;;;;4.47;2.25;;;;;;;15.71;62.99;100437.69;5013018;28;20489;-75
2021/10/05 09:32:16;;;;;;;5.47;2.63;;;;;;;15.96;63.80;100435.31;5010089;28;20042;-76
2021/10/05 09:34:55;;;;;;;4.13;2.70;;;;;;;15.87;62.71;100427.88;5012290;28;20053;-76
2021/10/05 09:37:34;;;;;;;5.30;2.50;;;;;;;15.57;63.52;100420.34;5010939;28;20029;-72
2021/10/05 09:40:12;;;;;;;6.20;2.92;;;;;;;15.61;63.72;100405.88;5014023;28;20045;-74
2021/10/05 09:42:44;;;;;;;7.70;2.20;;;;;;;15.70;64.02;100399.47;5017233;28;20521;-76
2021/10/05 09:45:15;;;;;;;6.43;2.05;;;;;;;15.91;63.68;100395.09;5012953;28;20125;-75
2021/10/05 09:47:50;;;;;;;6.95;2.63;;;;;;;15.93;62.94;100393.06;5013610;28;20040;-75
2021/10/05 09:50:30;;;;;;;4.85;1.80;;;;;;;15.82;62.27;100384.00;5019812;28;20550;-74
2021/10/05 09:53:01;;;;;;;3.33;1.83;;;;;;;15.81;62.84;100374.56;5015676;28;20449;-77
2021/10/05 09:55:31;;;;;;;5.30;1.90;;;;;;;15.77;63.76;100370.75;5019333;28;20030;-75
2021/10/05 09:57:57;;;;;;;3.38;1.80;;;;;;;15.75;62.99;100346.63;4998006;28;20444;-76
2021/10/05 10:00:25;;;;;;;4.95;1.75;;;;;;;15.99;61.72;100345.19;4993300;28;20453;-74
2021/10/05 10:02:51;;;;;;;8.25;1.58;;;;;;;16.19;62.28;100326.88;5022769;28;20040;-75
2021/10/05 10:05:21;;;;;;;9.27;2.17;;;;;;;16.31;60.24;100335.72;5007029;28;20033;-73
2021/10/05 10:07:49;;;;;;;2.53;1.40;;;;;;;16.51;59.55;100327.00;5010477;28;20474;-74
2021/10/05 10:10:18;;;;;;;3.35;1.30;;;;;;;16.46;59.16;100319.78;5010304;28;20456;-77
2021/10/05 10:12:53;;;;;;;3.67;1.52;;;;;;;16.53;59.81;100317.91;5011558;28;20456;-78
2021/10/05 10:15:22;;;;;;;3.50;1.60;;;;;;;16.51;58.79;100327.00;5009278;28;20091;-76
2021/10/05 10:17:49;;;;;;;5.65;1.50;;;;;;;16.50;59.76;100322.75;5008824;28;20091;-74
2021/10/05 10:20:26;;;;;;;2.67;1.30;;;;;;;16.54;60.04;100323.97;5016048;28;20029;-74
2021/10/05 10:22:53;;;;;;;9.00;2.10;;;;;;;16.56;58.55;100319.34;5010552;28;20034;-75
2021/10/05 10:25:21;;;;;;;5.80;1.27;;;;;;;16.76;58.80;100310.59;5012027;28;20414;-77
2021/10/05 10:27:47;;;;;;;2.88;1.05;;;;;;;16.80;58.23;100304.75;5008918;28;20044;-74
2021/10/05 10:30:13;;;;;;;4.85;1.50;;;;;;;16.83;58.25;100298.31;5013229;28;20038;-80
2021/10/05 10:33:03;;;;;;;7.53;1.92;;;;;;;16.80;57.12;100296.91;5018823;28;20068;-74
2021/10/05 10:35:29;;;;;;;9.65;2.10;;;;;;;16.88;56.82;100295.88;4992884;28;20057;-75
2021/10/05 10:37:56;;;;;;;4.18;1.15;;;;;;;16.87;56.92;100294.25;5007912;28;20095;-75
2021/10/05 10:40:36;;;;;;;3.60;2.17;;;;;;;16.92;57.51;100290.00;5014147;28;20040;-76
2021/10/05 10:43:12;;;;;;;6.03;1.20;;;;;;;16.99;57.46;100273.44;5015667;28;20038;-76
2021/10/05 10:45:46;;;;;;;6.00;1.35;;;;;;;17.01;57.18;100267.00;5014285;28;20394;-77
2021/10/05 10:48:23;;;;;;;4.82;1.40;;;;;;;16.87;57.11;100274.09;5017567;28;20083;-75
2021/10/05 10:50:49;;;;;;;2.45;1.20;;;;;;;17.02;57.54;100278.28;5015193;28;20068;-76
2021/10/05 10:53:14;;;;;;;3.20;1.33;;;;;;;17.21;56.95;100263.44;5018814;28;20094;-75
2021/10/05 10:55:40;;;;;;;5.10;1.52;;;;;;;17.15;56.00;100266.91;5014534;28;20041;-75
2021/10/05 10:58:06;;;;;;;3.17;1.17;;;;;;;17.13;56.50;100261.88;5015774;28;20036;-76
2021/10/05 11:00:33;;;;;;;4.68;1.20;;;;;;;17.27;57.14;100258.16;5015513;28;20029;-73
2021/10/05 11:03:01;;;;;;;4.53;1.27;;;;;;;17.41;57.17;100251.00;5014996;28;20755;-75
2021/10/05 11:05:31;;;;;;;8.57;1.40;;;;;;;17.38;56.29;100261.09;5016355;28;20038;-75
2021/10/05 11:07:59;;;;;;;8.15;2.25;;;;;;;17.55;56.89;100261.34;5018452;28;20053;-78
2021/10/05 11:10:32;;;;;;;4.72;1.40;;;;;;;17.55;56.33;100256.91;5011774;28;20097;-76
2021/10/05 11:13:06;;;;;;;3.00;1.00;;;;;;;17.69;55.39;100245.31;5014207;28;20060;-77
2021/10/05 11:15:47;;;;;;;4.80;1.45;;;;;;;17.48;56.79;100254.38;5015018;28;20030;-75
2021/10/05 11:18:18;;;;;;;9.43;1.45;;;;;;;17.42;55.65;100255.22;5026684;28;20037;-79
2021/10/05 11:20:55;;;;;;;4.75;1.10;;;;;;;17.33;56.42;100256.50;5020297;28;20045;-74
2021/10/05 11:23:23;;;;;;;2.72;1.23;;;;;;;17.39;56.30;100244.38;5011899;28;20034;-75